Anza Borrego Desert Research Center, California Weather observations

Data are for 10 minute period ending at time listed.
 Day   Time   Solar   Ave.   Ave.  Ave.  Vector  Max.   Baro.   Total    
  of    of     Rad.   Air    Rel.  Wind   Wind   Wind  Press.  Precip.   
Year   Day            Temp.  Hum.  Speed  Dir.   Gust                    
2015   (PST)  Kw/m2    F      %     mph   deg.    mph    mb.     in.     
-------------------------------------------------------------------------
 244    7:00   0.29   87.5    12    2.7   303     5.7   980.4    0.00 
 244    7:10   0.31   87.7    13    4.2    17     5.9   980.3    0.00 
 244    7:20   0.31   87.6    14    3.3    30     5.7   980.2    0.00 
 244    7:30   0.34   87.7    15    3.4    55     5.6   980.3    0.00 
 244    7:40   0.35   88.4    15    3.0    36     5.0   980.3    0.00 
 244    7:50   0.35   89.1    15    2.6   356     4.9   980.3    0.00 
 244    8:00   0.39   89.3    17    2.3   331     3.7   980.4    0.00 
 244    8:10   0.43   90.3    18    2.4    24     4.6   980.5    0.00 
 244    8:20   0.52   91.1    19    1.8    15     3.8   980.6    0.00 
 244    8:30   0.56   91.7    18    2.3    64     5.0   980.6    0.00 
 244    8:40   0.56   91.8    22    1.7   119     3.7   980.6    0.00 
 244    8:50   0.42   91.0    23    2.2    75     4.9   980.8    0.00 
 244    9:00   0.64   91.3    22    2.8    54     5.3   981.0    0.00 
 244    9:10   0.65   91.7    26    4.2    80     7.8   981.0    0.00 
 244    9:20   0.57   90.6    28    3.0    44     6.1   981.1    0.00 
 244    9:30   0.70   91.1    28    3.6   112     6.6   981.1    0.00 
 244    9:40   0.73   92.4    27    4.4   108     7.2   981.2    0.00 
 244    9:50   0.82   92.6    26    3.5    68     7.7   981.2    0.00 
 244   10:00   0.84   93.3    25    3.0    64     7.4   981.2    0.00 
 244   10:10   0.76   93.6    21    4.0    38     7.8   981.2    0.00 
 244   10:20   0.69   93.1    21    1.9   320     5.6   981.1    0.00 
 244   10:30   0.81   94.7    20    3.3     6     7.6   980.9    0.00 
 244   10:40   0.69   94.6    20    3.0    12     8.1   980.7    0.00 
 244   10:50   0.89   95.4    19    3.5    56     7.2   980.4    0.00 
 244   11:00   0.93   96.0    15    2.7    87     6.4   980.3    0.00 
 244   11:10   0.92   96.9    15    3.8    81    10.6   980.3    0.00 
 244   11:20   0.91   96.4    15    3.5    30     8.0   980.2    0.00 
 244   11:30   0.79   96.5    16    4.5    56     9.6   980.1    0.00 
 244   11:40   0.92   97.1    15    4.1    85     9.3   979.9    0.00 
 244   11:50   0.32   96.0    17    4.4    71    10.4   979.9    0.00 
 244   12:00   0.93   96.5    16    3.6    12     6.8   979.7    0.00 
 244   12:10   0.96   98.5    16    3.3   143     8.6   979.7    0.00 
 244   12:20   0.91   98.3    17    3.0   135     8.0   979.6    0.00 
 244   12:30   0.90   99.8    17    5.3   129    11.3   979.4    0.00 
 244   12:40   0.80   99.2    18    5.0   108     8.4   979.3    0.00 
 244   12:50   0.80   98.5    19    3.8    83    11.0   979.3    0.00 
 244   13:00   0.62   99.0    20    4.4    99     9.1   979.2    0.00 
 244   13:10   0.42   98.0    21    5.5   114    10.2   979.1    0.00 
 244   13:20   0.53   97.8    24    8.0   124    15.3   979.0    0.00 
 244   13:30   0.80   98.7    24    7.5   111    12.1   978.9    0.00 
 244   13:40   0.48   97.9    25    8.0   111    14.0   978.8    0.00 
 244   13:50   0.66   98.6    24    6.8   112    11.2   978.7    0.00 
 244   14:00   0.45   98.1    25    6.3   137    11.9   978.6    0.00 
 244   14:10   0.60   97.9    26    4.9    88    10.4   978.5    0.00 
 244   14:20   0.63   98.8    27    6.4   110    11.8   978.4    0.00 
 244   14:30   0.32   97.9    28    6.3   119    13.4   978.3    0.00 
 244   14:40   0.29   97.8    28    4.4   139     9.5   978.3    0.00 
 244   14:50   0.24   97.4    29    6.9    99    10.7   978.1    0.00 
 244   15:00   0.23   97.0    28    5.3   108    11.0   978.1    0.00 
 244   15:10   0.23   97.6    27    4.4    57     8.5   978.0    0.00 
 244   15:20   0.29   97.8    26    4.7    88    10.4   978.0    0.00 
 244   15:30   0.29   97.9    24    4.8    64     8.2   978.0    0.00 
 244   15:40   0.28   98.5    24    3.4    48     8.0   977.8    0.00 
 244   15:50   0.23   98.4    26    6.7   130    10.1   977.8    0.00 
 244   16:00   0.25   97.7    26    3.3   120     6.6   977.8    0.00 
 244   16:10   0.28   98.5    26    2.4    10     4.5   977.7    0.00 
 244   16:20   0.37   99.6    25    1.3   329     2.9   977.7    0.00 
 244   16:30   0.31  101.6    24    4.0   174     6.8   977.7    0.00 
 244   16:40   0.15   99.3    24    5.8   161    10.6   977.7    0.00 
 244   16:50   0.11   98.3    23    3.0   181     8.0   977.7    0.00 
 244   17:00   0.10   98.4    19    3.8   105     8.5   977.7    0.00 
 244   17:10   0.08   97.9    18    6.9   102    10.4   977.7    0.00 
 244   17:20   0.08   97.8    18    5.4   116    11.0   977.7    0.00 
 244   17:30   0.07   97.6    18    5.7   122     9.5   977.6    0.00 
 244   17:40   0.06   97.2    19    5.8   128     8.1   977.6    0.00 
 244   17:50   0.04   96.8    20    6.2   132     9.2   977.6    0.00 
 244   18:00   0.02   96.2    21    5.3   130     6.9   977.6    0.00 
 244   18:10   0.00   95.6    23    5.6   145     8.4   977.6    0.00 
 244   18:20   0.00   95.2    23    3.3   145     6.1   977.8    0.00 
 244   18:30   0.00   94.6    25    3.8   226     7.2   977.8    0.00 
 244   18:40   0.00   93.8    26    6.0   227     7.5   977.8    0.00 
 244   18:50   0.00   93.4    26    6.0   229     7.7   977.8    0.00 
 244   19:00   0.00   92.9    26    5.3   228     7.2   977.9    0.00 
 244   19:10   0.00   92.7    26    3.9   241     6.8   977.9    0.00 
 244   19:20   0.00   92.5    26    3.3    87     5.0   978.0    0.00 
 244   19:30   0.00   91.4    27    2.7   134     4.9   978.2    0.00 
 244   19:40   0.00   91.2    28    3.4   110     4.9   978.3    0.00 
 244   19:50   0.00   90.6    28    2.4   153     3.7   978.4    0.00 
 244   20:00   0.00   89.8    29    3.6   165     5.3   978.5    0.00 
 244   20:10   0.00   89.6    29    5.2   159     6.8   978.6    0.00 
 244   20:20   0.00   89.5    29    5.3   164     7.5   978.6    0.00 
 244   20:30   0.00   89.5    29    4.6   153     7.5   978.7    0.00 
 244   20:40   0.00   88.4    29    1.4   241     2.7   978.7    0.00 
 244   20:50   0.00   88.0    28    1.3   356     2.9   978.8    0.00 
 244   21:00   0.00   87.3    29    2.3   335     4.1   978.8    0.00 
 244   21:10   0.00   87.6    27    2.0   254     4.0   978.8    0.00 
 244   21:20   0.00   87.3    28    2.3   274     3.7   978.8    0.00 
 244   21:30   0.00   88.2    23    4.3   307     9.9   978.8    0.00 
 244   21:40   0.00   90.4    19    4.6   322     9.1   978.9    0.00 
 244   21:50   0.00   88.1    25    4.1   315     8.0   979.0    0.00 
 244   22:00   0.00   86.3    28    4.9   356     7.5   979.1    0.00 
 244   22:10   0.00   86.8    25    3.6    20     6.4   979.1    0.00 
 244   22:20   0.00   86.2    26    2.9   345     4.5   979.1    0.00 
 244   22:30   0.00   85.2    26    1.6   208     4.2   979.1    0.00 
 244   22:40   0.00   85.1    24    2.1   256     7.6   979.0    0.00 
 244   22:50   0.00   86.2    17    4.0   254     6.9   979.0    0.00 
 244   23:00   0.00   87.5    15    2.4   276     4.7   979.1    0.00 
 244   23:10   0.00   87.7    16    3.7   325     7.1   979.1    0.00 
 244   23:20   0.00   83.4    28    3.4    22     5.6   979.1    0.00 
 244   23:30   0.00   81.3    30    1.9   317     4.2   979.1    0.00 
 244   23:40   0.00   80.8    30    3.1   282     4.8   979.2    0.00 
 244   23:50   0.00   80.6    30    3.0   267     5.0   979.2    0.00 
 245    0:00   0.00   81.3    29    2.8   219     6.4   979.2    0.00 
 245    0:10   0.00   82.2    27    2.0   312     4.0   979.3    0.00 
 245    0:20   0.00   80.4    26    2.5   250     7.8   979.2    0.00 
 245    0:30   0.00   79.7    26    1.3   162     4.1   979.3    0.00 
 245    0:40   0.00   79.8    25    3.0   287     5.4   979.3    0.00 
 245    0:50   0.00   81.4    25    5.9   321     7.6   979.3    0.00 
 245    1:00   0.00   81.8    23    4.0   293     5.8   979.2    0.00 
 245    1:10   0.00   79.9    22    2.6   179     4.1   979.2    0.00 
 245    1:20   0.00   79.3    22    1.8   290     4.7   979.2    0.00 
 245    1:30   0.00   79.6    22    2.2   351     3.8   979.2    0.00 
 245    1:40   0.00   79.8    22    2.8    19     4.7   979.3    0.00 
 245    1:50   0.00   79.2    23    2.3    16     3.7   979.3    0.00 
 245    2:00   0.00   78.9    23    0.9   343     2.1   979.3    0.00 
 245    2:10   0.00   77.9    23    3.8   200     7.5   979.4    0.00 
 245    2:20   0.00   77.4    23    3.8   238     5.9   979.3    0.00 
 245    2:30   0.00   77.4    22    3.7   263     5.6   979.5    0.00 
 245    2:40   0.00   76.6    22    2.9   237     4.1   979.5    0.00 
 245    2:50   0.00   76.4    22    4.4   160     6.5   979.4    0.00 
 245    3:00   0.00   78.2    20    3.4   140     4.3   979.4    0.00 
 245    3:10   0.00   77.8    20    3.5   197     7.5   979.4    0.00 
 245    3:20   0.00   78.1    19    4.0   190     7.4   979.4    0.00 
 245    3:30   0.00   79.2    18    2.1    94     3.2   979.4    0.00 
 245    3:40   0.00   78.1    18    2.0   308     4.2   979.5    0.00 
 245    3:50   0.00   76.8    21    3.7   359     5.3   979.5    0.00 
 245    4:00   0.00   75.1    22    2.1   203     4.8   979.6    0.00 
 245    4:10   0.00   75.7    21    2.6   247     5.8   979.6    0.00 
 245    4:20   0.00   74.9    20    2.6   301     3.7   979.7    0.00 
 245    4:30   0.00   73.0    20    2.0   256     5.0   979.8    0.00 
 245    4:40   0.00   73.9    19    2.8   237     5.0   979.8    0.00 
 245    4:50   0.00   75.0    18    3.4   310     5.3   979.9    0.00 
 245    5:00   0.00   74.5    18    3.4   268     5.5   980.1    0.00 
 245    5:10   0.00   74.0    17    2.8   274     5.3   980.1    0.00 
 245    5:20   0.00   73.1    17    4.0   280     6.2   980.2    0.00 
 245    5:30   0.00   73.0    17    3.2   284     5.0   980.3    0.00 
 245    5:40   0.01   74.0    17    2.6   317     4.7   980.4    0.00 
 245    5:50   0.04   74.1    16    2.9   287     5.3   980.4    0.00 
 245    6:00   0.07   77.2    16    0.9    38     2.5   980.6    0.00 
 245    6:10   0.08   81.2    15    0.6   140     2.0   980.8    0.00 
 245    6:20   0.09   80.1    15    3.0   213     4.2   981.0    0.00 
 245    6:30   0.12   80.9    15    3.2   202     4.7   981.1    0.00 
 245    6:40   0.12   83.0    14    3.0   249     4.3   981.1    0.00 
 245    6:50   0.18   84.1    14    1.5   248     3.3   981.1    0.00 

Return to Anza Borrego Desert Research Center graphs page.


Western Regional Climate Center,wrcc@dri.edu